createdAt,value
2022-08-05T00:00:18.479Z,22.73
2022-08-05T00:03:04.827Z,22.44
2022-08-05T00:06:04.905Z,22.62
2022-08-05T00:08:34.999Z,22.56
2022-08-05T00:11:20.656Z,22.60
2022-08-05T00:13:57.417Z,22.58
2022-08-05T00:16:36.043Z,22.56
2022-08-05T00:19:12.209Z,22.62
2022-08-05T00:21:39.742Z,22.54
2022-08-05T00:24:11.234Z,22.55
2022-08-05T00:26:51.889Z,22.56
2022-08-05T00:29:25.393Z,22.48
2022-08-05T00:32:13.039Z,22.40
2022-08-05T00:35:05.019Z,22.22
2022-08-05T00:37:50.434Z,22.09
2022-08-05T00:40:26.827Z,22.14
2022-08-05T00:42:58.593Z,21.99
2022-08-05T00:45:37.909Z,21.95
2022-08-05T00:48:09.509Z,21.77
2022-08-05T00:50:41.408Z,21.75
2022-08-05T00:54:00.547Z,21.59
2022-08-05T00:55:59.590Z,21.58
2022-08-05T00:58:27.862Z,21.37
2022-08-05T01:00:55.382Z,21.40
2022-08-05T01:03:23.491Z,21.36
2022-08-05T01:05:54.634Z,21.14
2022-08-05T01:08:39.202Z,21.20
2022-08-05T01:11:22.410Z,21.25
2022-08-05T01:13:58.525Z,21.23
2022-08-05T01:17:00.116Z,21.21
2022-08-05T01:20:00.722Z,21.04
2022-08-05T01:22:31.777Z,21.08
2022-08-05T01:25:14.541Z,21.01
2022-08-05T01:27:54.852Z,20.96
2022-08-05T01:30:34.290Z,20.84
2022-08-05T01:33:08.580Z,20.81
2022-08-05T01:35:51.132Z,20.86
2022-08-05T01:38:27.621Z,20.68
2022-08-05T01:41:01.996Z,20.58
2022-08-05T01:43:31.855Z,20.56
2022-08-05T01:46:07.514Z,20.72
2022-08-05T01:48:49.690Z,20.75
2022-08-05T01:51:18.918Z,20.70
2022-08-05T01:53:57.708Z,20.82
2022-08-05T01:58:09.567Z,20.73
2022-08-05T01:59:26.768Z,20.78
2022-08-05T02:01:57.883Z,20.69
2022-08-05T02:04:28.905Z,20.77
2022-08-05T02:06:58.991Z,20.68
2022-08-05T02:09:26.935Z,20.65
2022-08-05T02:12:33.545Z,20.48
2022-08-05T02:15:07.277Z,20.33
2022-08-05T02:18:28.338Z,20.37
2022-08-05T02:21:02.567Z,20.21
2022-08-05T02:23:35.967Z,20.23
2022-08-05T02:26:09.444Z,20.26
2022-08-05T02:28:45.943Z,20.21
2022-08-05T02:31:22.074Z,20.11
2022-08-05T02:33:57.884Z,20.28
2022-08-05T02:36:31.182Z,20.24
2022-08-05T02:39:03.221Z,20.18
2022-08-05T02:41:42.928Z,20.14
2022-08-05T02:44:13.492Z,20.21
2022-08-05T02:46:53.149Z,20.11
2022-08-05T02:49:36.614Z,20.16
2022-08-05T02:52:09.380Z,20.10
2022-08-05T02:54:41.289Z,20.04
2022-08-05T02:58:09.414Z,20.05
2022-08-05T03:00:07.686Z,20.18
2022-08-05T03:02:39.625Z,20.00
2022-08-05T03:05:10.285Z,20.09
2022-08-05T03:08:00.175Z,20.00
2022-08-05T03:10:27.150Z,20.05
2022-08-05T03:12:54.572Z,20.18
2022-08-05T03:15:24.163Z,20.07
2022-08-05T03:17:58.123Z,19.96
2022-08-05T03:20:27.006Z,19.95
2022-08-05T03:22:57.121Z,19.97
2022-08-05T03:25:33.847Z,20.12
2022-08-05T03:28:15.122Z,20.06
2022-08-05T03:30:47.498Z,20.06
2022-08-05T03:33:15.023Z,20.27
2022-08-05T03:35:46.548Z,20.31
2022-08-05T03:38:14.812Z,20.25
2022-08-05T03:40:48.585Z,20.44
2022-08-05T03:44:09.502Z,20.60
2022-08-05T03:46:05.339Z,20.50
2022-08-05T03:48:36.770Z,20.23
2022-08-05T03:52:39.200Z,20.54
2022-08-05T03:55:50.630Z,20.51
2022-08-05T03:56:47.848Z,20.61
2022-08-05T03:59:22.330Z,20.42
2022-08-05T04:01:53.606Z,20.38
2022-08-05T04:04:27.472Z,20.26
2022-08-05T04:06:55.998Z,20.54
2022-08-05T04:09:26.103Z,20.61
2022-08-05T04:11:56.751Z,20.83
2022-08-05T04:14:29.950Z,20.95
2022-08-05T04:17:03.111Z,20.55
2022-08-05T04:19:30.688Z,20.62
2022-08-05T04:22:09.258Z,20.90
2022-08-05T04:24:52.740Z,20.98
2022-08-05T04:27:41.760Z,21.04
2022-08-05T04:30:09.443Z,21.30
2022-08-05T04:32:37.634Z,20.83
2022-08-05T04:35:05.874Z,20.73
2022-08-05T04:38:02.755Z,21.17
2022-08-05T04:40:20.880Z,21.36
2022-08-05T04:42:48.415Z,21.70
2022-08-05T04:45:22.895Z,21.81
2022-08-05T04:48:10.295Z,22.01
2022-08-05T04:51:03.547Z,22.39
2022-08-05T04:53:35.854Z,22.52
2022-08-05T04:56:15.201Z,21.80
2022-08-05T04:58:51.140Z,21.68
2022-08-05T05:01:33.796Z,21.64
2022-08-05T05:04:05.925Z,22.16
2022-08-05T05:06:40.613Z,22.23
2022-08-05T05:09:14.282Z,22.39
2022-08-05T05:11:54.641Z,23.21
2022-08-05T05:14:31.462Z,23.77
2022-08-05T05:17:03.186Z,24.90
2022-08-05T05:19:36.583Z,25.02
2022-08-05T05:22:24.219Z,25.15
2022-08-05T05:24:57.510Z,26.60
2022-08-05T05:27:44.909Z,28.83
2022-08-05T05:30:15.282Z,29.76
2022-08-05T05:33:00.502Z,28.94
2022-08-05T05:35:37.615Z,30.73
2022-08-05T05:38:09.397Z,32.92
2022-08-05T05:40:49.610Z,33.74
2022-08-05T05:43:27.895Z,34.40
2022-08-05T05:46:12.216Z,32.14
2022-08-05T05:48:44.482Z,34.63
2022-08-05T05:51:15.865Z,36.79
2022-08-05T05:53:54.405Z,38.03
2022-08-05T05:56:32.845Z,37.46
2022-08-05T05:59:05.378Z,37.82
2022-08-05T06:01:38.107Z,32.24
2022-08-05T06:04:12.029Z,34.88
2022-08-05T06:06:47.377Z,37.58
2022-08-05T06:09:25.392Z,37.58
2022-08-05T06:11:59.932Z,36.42
2022-08-05T06:14:34.622Z,32.71
2022-08-05T06:17:22.011Z,34.34
2022-08-05T06:19:56.662Z,33.89
2022-08-05T06:22:33.461Z,35.86
2022-08-05T06:25:59.207Z,36.55
2022-08-05T06:28:10.481Z,37.62
2022-08-05T06:30:37.631Z,36.86
2022-08-05T06:33:05.013Z,36.93
2022-08-05T06:36:07.051Z,38.42
2022-08-05T06:38:35.881Z,34.78
2022-08-05T06:41:05.561Z,37.47
2022-08-05T06:43:51.433Z,37.77
2022-08-05T06:46:29.711Z,33.54
2022-08-05T06:49:01.161Z,34.60
2022-08-05T06:51:31.314Z,34.48
2022-08-05T06:54:00.474Z,36.89
2022-08-05T06:56:34.136Z,39.70
2022-08-05T06:59:03.680Z,38.59
2022-08-05T07:01:36.285Z,35.53
2022-08-05T07:04:04.179Z,34.03
2022-08-05T07:06:32.020Z,35.64
2022-08-05T07:09:03.737Z,36.86
2022-08-05T07:11:37.317Z,34.69
2022-08-05T07:14:29.591Z,32.20
2022-08-05T07:18:00.014Z,29.30
2022-08-05T07:22:36.353Z,30.94
2022-08-05T07:25:22.869Z,33.26
2022-08-05T07:27:57.993Z,32.26
2022-08-05T07:30:38.559Z,34.05
2022-08-05T07:33:16.636Z,34.69
2022-08-05T07:36:01.994Z,37.09
2022-08-05T07:38:43.259Z,34.29
2022-08-05T07:42:09.177Z,34.04
2022-08-05T07:44:14.106Z,34.80
2022-08-05T07:46:48.472Z,35.51
2022-08-05T07:49:18.075Z,35.93
2022-08-05T07:51:52.967Z,35.99
2022-08-05T07:54:31.639Z,34.81
2022-08-05T07:57:23.625Z,35.92
2022-08-05T07:59:52.195Z,36.40
2022-08-05T08:02:26.550Z,35.71
2022-08-05T08:04:58.306Z,38.83
2022-08-05T08:07:28.518Z,38.20
2022-08-05T08:09:56.464Z,40.90
2022-08-05T08:12:35.611Z,42.76
2022-08-05T08:15:09.766Z,38.37
2022-08-05T08:17:46.247Z,39.78
2022-08-05T08:20:45.074Z,40.02
2022-08-05T08:24:00.200Z,36.69
2022-08-05T08:26:00.373Z,39.71
2022-08-05T08:28:36.259Z,41.21
2022-08-05T08:31:08.246Z,39.94
2022-08-05T08:33:37.913Z,37.75
2022-08-05T08:38:55.985Z,34.68
2022-08-05T08:41:26.168Z,36.72
2022-08-05T08:45:16.876Z,37.06
2022-08-05T08:47:47.534Z,34.79
2022-08-05T08:50:22.656Z,37.78
2022-08-05T08:53:12.381Z,36.30
2022-08-05T08:56:03.003Z,33.33
2022-08-05T08:58:43.524Z,33.47
2022-08-05T09:01:17.750Z,35.73
2022-08-05T09:03:54.576Z,35.28
2022-08-05T09:06:30.603Z,36.06
2022-08-05T09:09:01.040Z,32.86
2022-08-05T09:11:50.910Z,32.56
2022-08-05T09:14:58.095Z,33.75
2022-08-05T09:17:08.150Z,34.82
2022-08-05T09:20:02.004Z,34.08
2022-08-05T09:22:32.116Z,35.03
2022-08-05T09:25:23.981Z,36.53
2022-08-05T09:28:04.384Z,33.50
2022-08-05T09:30:35.151Z,35.07
2022-08-05T09:33:04.960Z,32.33
2022-08-05T09:35:32.802Z,33.86
2022-08-05T09:38:12.830Z,33.84
2022-08-05T09:40:52.501Z,35.41
2022-08-05T09:43:26.150Z,33.78
2022-08-05T09:46:06.006Z,33.97
2022-08-05T09:48:35.882Z,35.17
2022-08-05T09:51:15.338Z,35.25
2022-08-05T09:53:53.593Z,34.66
2022-08-05T09:56:35.171Z,33.03
2022-08-05T09:59:16.875Z,33.65
2022-08-05T10:01:46.604Z,32.96
2022-08-05T10:04:16.058Z,33.72
2022-08-05T10:06:59.323Z,31.52
2022-08-05T10:09:29.804Z,32.01
2022-08-05T10:12:18.491Z,32.45
2022-08-05T10:15:22.343Z,35.13
2022-08-05T10:18:28.329Z,35.36
2022-08-05T10:21:00.186Z,34.92
2022-08-05T10:23:58.995Z,35.71
2022-08-05T10:26:32.637Z,35.24
2022-08-05T10:29:01.242Z,35.42
2022-08-05T10:32:51.960Z,34.86
2022-08-05T10:34:16.947Z,34.07
2022-08-05T10:36:44.941Z,34.13
2022-08-05T10:39:25.199Z,32.79
2022-08-05T10:42:18.596Z,34.25
2022-08-05T10:44:51.489Z,34.94
2022-08-05T10:47:27.099Z,33.86
2022-08-05T10:50:32.696Z,35.33
2022-08-05T10:53:00.197Z,34.37
2022-08-05T10:55:27.876Z,33.41
2022-08-05T10:58:12.027Z,32.88
2022-08-05T11:00:48.571Z,32.83
2022-08-05T11:03:26.859Z,32.27
2022-08-05T11:06:05.500Z,32.54
2022-08-05T11:08:37.472Z,33.41
2022-08-05T11:11:44.409Z,34.22
2022-08-05T11:14:14.036Z,33.88
2022-08-05T11:16:56.699Z,32.27
2022-08-05T11:20:17.442Z,31.98
2022-08-05T11:22:49.731Z,31.69
2022-08-05T11:26:04.964Z,30.46
2022-08-05T11:28:25.968Z,30.58
2022-08-05T11:30:58.562Z,30.37
2022-08-05T11:33:44.032Z,30.60
2022-08-05T11:36:34.356Z,30.77
2022-08-05T11:39:06.864Z,31.05
2022-08-05T11:42:01.106Z,30.56
2022-08-05T11:44:53.148Z,30.92
2022-08-05T11:47:48.517Z,30.43
2022-08-05T11:50:14.445Z,30.29
2022-08-05T11:52:44.129Z,30.33
2022-08-05T11:55:13.572Z,30.27
2022-08-05T11:58:09.649Z,30.27
2022-08-05T12:00:38.615Z,30.49
2022-08-05T12:03:29.243Z,30.58
2022-08-05T12:06:06.702Z,30.50
2022-08-05T12:08:52.030Z,30.47
2022-08-05T12:11:23.464Z,30.38
2022-08-05T12:14:06.814Z,30.17
2022-08-05T12:16:38.540Z,30.27
2022-08-05T12:19:08.173Z,30.35
2022-08-05T12:21:42.927Z,30.19
2022-08-05T12:24:11.501Z,30.40
2022-08-05T12:26:44.150Z,30.65
2022-08-05T12:29:22.736Z,30.50
2022-08-05T12:31:53.476Z,30.57
2022-08-05T12:34:32.321Z,30.31
2022-08-05T12:37:17.297Z,30.43
2022-08-05T12:39:51.265Z,30.43
2022-08-05T12:42:21.497Z,30.41
2022-08-05T12:44:52.794Z,30.65
2022-08-05T12:47:31.081Z,30.73
2022-08-05T12:50:03.355Z,30.74
2022-08-05T12:52:41.808Z,30.75
2022-08-05T12:55:22.248Z,30.63
2022-08-05T12:58:52.425Z,30.63
2022-08-05T13:02:02.289Z,30.59
2022-08-05T13:03:42.155Z,30.60
2022-08-05T13:06:16.799Z,30.47
2022-08-05T13:08:51.694Z,30.66
2022-08-05T13:12:01.996Z,30.42
2022-08-05T13:14:24.801Z,30.61
2022-08-05T13:17:31.872Z,30.71
2022-08-05T13:20:24.165Z,30.59
2022-08-05T13:22:53.782Z,30.81
2022-08-05T13:25:21.952Z,31.02
2022-08-05T13:27:54.341Z,31.15
2022-08-05T13:30:35.687Z,31.27
2022-08-05T13:33:06.289Z,31.01
2022-08-05T13:35:47.161Z,30.94
2022-08-05T13:38:30.936Z,31.06
2022-08-05T13:41:03.957Z,30.97
2022-08-05T13:43:45.097Z,30.83
2022-08-05T13:46:35.722Z,30.92
2022-08-05T13:49:10.146Z,30.94
2022-08-05T13:51:41.669Z,30.88
2022-08-05T13:54:15.247Z,30.65
2022-08-05T13:56:51.081Z,30.68
2022-08-05T13:59:24.999Z,30.75
2022-08-05T14:01:58.116Z,30.54
2022-08-05T14:04:49.753Z,30.62
2022-08-05T14:07:55.718Z,30.72
2022-08-05T14:10:13.979Z,30.80
2022-08-05T14:12:48.758Z,30.63
2022-08-05T14:16:05.681Z,30.89
2022-08-05T14:18:05.185Z,30.87
2022-08-05T14:20:32.860Z,30.95
2022-08-05T14:23:00.756Z,31.09
2022-08-05T14:25:30.298Z,30.89
2022-08-05T14:27:58.487Z,30.85
2022-08-05T14:30:27.894Z,30.96
2022-08-05T14:32:56.629Z,30.94
2022-08-05T14:35:37.020Z,31.04
2022-08-05T14:38:33.000Z,30.90
2022-08-05T14:40:59.944Z,30.85
2022-08-05T14:44:02.502Z,31.03
2022-08-05T14:46:15.618Z,30.94
2022-08-05T14:48:43.090Z,30.93
2022-08-05T14:51:17.544Z,31.03
2022-08-05T14:53:45.680Z,31.07
2022-08-05T14:56:33.175Z,30.79
2022-08-05T14:59:01.558Z,30.82
2022-08-05T15:01:47.171Z,30.72
2022-08-05T15:04:22.528Z,30.81
2022-08-05T15:06:51.266Z,30.67
2022-08-05T15:09:51.968Z,30.78
2022-08-05T15:12:09.525Z,30.77
2022-08-05T15:14:48.247Z,30.92
2022-08-05T15:17:46.059Z,30.80
2022-08-05T15:20:11.962Z,30.73
2022-08-05T15:22:44.718Z,30.75
2022-08-05T15:25:14.028Z,30.80
2022-08-05T15:27:43.082Z,30.60
2022-08-05T15:30:20.019Z,30.56
2022-08-05T15:32:47.312Z,30.48
2022-08-05T15:35:14.732Z,30.46
2022-08-05T15:38:32.448Z,30.53
2022-08-05T15:41:01.185Z,30.72
2022-08-05T15:43:20.435Z,30.80
2022-08-05T15:46:00.247Z,30.76
2022-08-05T15:48:28.720Z,30.79
2022-08-05T15:50:56.495Z,30.69
2022-08-05T15:53:26.362Z,30.51
2022-08-05T15:56:04.266Z,30.51
2022-08-05T15:58:35.387Z,30.79
2022-08-05T16:01:17.020Z,30.83
2022-08-05T16:03:50.723Z,30.65
2022-08-05T16:06:19.920Z,30.69
2022-08-05T16:08:50.939Z,30.62
2022-08-05T16:11:18.624Z,30.66
2022-08-05T16:13:48.621Z,30.66
2022-08-05T16:16:25.156Z,30.64
2022-08-05T16:18:53.909Z,30.55
2022-08-05T16:21:58.486Z,30.52
2022-08-05T16:24:34.924Z,30.44
2022-08-05T16:27:01.503Z,30.36
2022-08-05T16:29:31.340Z,30.27
2022-08-05T16:32:09.919Z,30.30
2022-08-05T16:34:39.250Z,30.31
2022-08-05T16:38:03.685Z,30.15
2022-08-05T16:40:06.211Z,30.23
2022-08-05T16:42:35.474Z,30.02
2022-08-05T16:46:04.915Z,30.06
2022-08-05T16:47:54.399Z,30.00
2022-08-05T16:50:24.948Z,29.95
2022-08-05T16:52:52.126Z,29.78
2022-08-05T16:55:20.463Z,29.87
2022-08-05T16:57:59.810Z,29.75
2022-08-05T17:00:35.094Z,29.67
2022-08-05T17:03:15.295Z,29.63
2022-08-05T17:05:54.089Z,29.60
2022-08-05T17:08:36.189Z,29.41
2022-08-05T17:11:17.515Z,29.36
2022-08-05T17:13:45.735Z,29.24
2022-08-05T17:16:29.674Z,28.93
2022-08-05T17:19:01.625Z,28.68
2022-08-05T17:21:35.608Z,28.65
2022-08-05T17:24:19.834Z,28.52
2022-08-05T17:26:58.705Z,28.31
2022-08-05T17:29:33.840Z,28.04
2022-08-05T17:32:11.786Z,27.86
2022-08-05T17:34:47.713Z,27.51
2022-08-05T17:37:39.567Z,27.17
2022-08-05T17:40:12.434Z,26.77
2022-08-05T17:42:41.825Z,26.73
2022-08-05T17:45:29.627Z,26.75
2022-08-05T17:48:08.042Z,26.31
2022-08-05T17:50:35.867Z,26.16
2022-08-05T17:53:05.065Z,25.80
2022-08-05T17:55:37.316Z,25.55
2022-08-05T17:58:14.400Z,25.28
2022-08-05T18:00:47.016Z,25.08
2022-08-05T18:03:56.525Z,25.10
2022-08-05T18:06:11.841Z,24.77
2022-08-05T18:08:45.815Z,24.83
2022-08-05T18:11:23.876Z,24.91
2022-08-05T18:13:53.983Z,24.93
2022-08-05T18:16:21.439Z,24.91
2022-08-05T18:18:50.070Z,24.88
2022-08-05T18:21:19.927Z,24.96
2022-08-05T18:23:48.669Z,24.88
2022-08-05T18:26:18.705Z,24.79
2022-08-05T18:28:46.684Z,24.49
2022-08-05T18:31:16.022Z,24.44
2022-08-05T18:33:46.909Z,24.33
2022-08-05T18:36:15.789Z,24.19
2022-08-05T18:38:43.447Z,24.07
2022-08-05T18:41:55.691Z,24.14
2022-08-05T18:44:06.370Z,23.96
2022-08-05T18:46:35.101Z,23.96
2022-08-05T18:49:23.447Z,24.00
2022-08-05T18:52:16.312Z,24.01
2022-08-05T18:54:45.848Z,23.97
2022-08-05T18:57:15.339Z,23.58
2022-08-05T19:00:01.478Z,23.55
2022-08-05T19:02:30.465Z,23.20
2022-08-05T19:05:02.708Z,22.90
2022-08-05T19:07:50.213Z,22.94
2022-08-05T19:10:26.612Z,23.08
2022-08-05T19:12:57.125Z,22.98
2022-08-05T19:15:57.146Z,23.01
2022-08-05T19:18:22.398Z,22.94
2022-08-05T19:20:54.187Z,22.89
2022-08-05T19:24:06.595Z,22.79
2022-08-05T19:26:11.842Z,22.49
2022-08-05T19:28:43.668Z,22.59
2022-08-05T19:31:17.662Z,22.65
2022-08-05T19:33:48.238Z,22.52
2022-08-05T19:36:29.451Z,22.45
2022-08-05T19:39:01.086Z,22.14
2022-08-05T19:41:58.185Z,22.30
2022-08-05T19:44:19.177Z,22.35
2022-08-05T19:46:47.172Z,22.21
2022-08-05T19:49:18.007Z,22.27
2022-08-05T19:52:09.435Z,22.25
2022-08-05T19:54:34.662Z,22.22
2022-08-05T19:57:09.120Z,22.31
2022-08-05T20:00:02.128Z,22.03
2022-08-05T20:02:27.956Z,22.10
2022-08-05T20:04:58.418Z,22.01
2022-08-05T20:07:47.157Z,21.73
2022-08-05T20:10:16.613Z,21.86
2022-08-05T20:12:46.232Z,21.81
2022-08-05T20:15:47.809Z,21.57
2022-08-05T20:18:10.792Z,21.44
2022-08-05T20:20:56.895Z,21.29
2022-08-05T20:23:40.177Z,21.24
2022-08-05T20:26:16.536Z,21.01
2022-08-05T20:28:50.889Z,21.10
2022-08-05T20:31:21.844Z,20.95
2022-08-05T20:33:51.581Z,20.93
2022-08-05T20:36:19.627Z,21.03
2022-08-05T20:38:53.265Z,20.85
2022-08-05T20:41:27.408Z,20.82
2022-08-05T20:44:17.138Z,20.89
2022-08-05T20:46:48.061Z,20.99
2022-08-05T20:49:24.118Z,21.19
2022-08-05T20:51:53.607Z,21.09
2022-08-05T20:54:25.830Z,21.13
2022-08-05T20:57:14.376Z,21.15
2022-08-05T21:00:10.650Z,21.28
2022-08-05T21:02:30.907Z,21.27
2022-08-05T21:04:58.130Z,21.13
2022-08-05T21:07:50.859Z,21.17
2022-08-05T21:10:17.086Z,21.18
2022-08-05T21:12:58.166Z,21.20
2022-08-05T21:15:32.944Z,21.08
2022-08-05T21:18:02.002Z,21.11
2022-08-05T21:20:33.495Z,21.20
2022-08-05T21:23:03.097Z,21.23
2022-08-05T21:25:33.680Z,21.28
2022-08-05T21:28:03.123Z,21.36
2022-08-05T21:30:31.528Z,21.25
2022-08-05T21:33:01.677Z,21.30
2022-08-05T21:35:43.635Z,21.34
2022-08-05T21:38:17.927Z,21.28
2022-08-05T21:40:45.258Z,21.34
2022-08-05T21:43:24.284Z,21.30
2022-08-05T21:45:57.766Z,21.24
2022-08-05T21:48:28.860Z,21.25
2022-08-05T21:50:57.218Z,21.17
2022-08-05T21:53:27.671Z,21.13
2022-08-05T21:56:16.532Z,21.13
2022-08-05T21:58:57.157Z,21.13
2022-08-05T22:01:26.371Z,21.20
2022-08-05T22:03:54.211Z,21.26
2022-08-05T22:06:35.095Z,21.13
2022-08-05T22:09:13.899Z,21.11
2022-08-05T22:11:46.703Z,21.20
2022-08-05T22:14:33.375Z,21.16
2022-08-05T22:17:04.309Z,21.09
2022-08-05T22:20:02.226Z,21.07
2022-08-05T22:22:28.201Z,21.07
2022-08-05T22:25:18.172Z,20.98
2022-08-05T22:28:09.298Z,20.94
2022-08-05T22:30:44.064Z,21.13
2022-08-05T22:33:55.898Z,21.12
2022-08-05T22:36:14.547Z,21.02
2022-08-05T22:38:48.358Z,21.05
2022-08-05T22:42:04.552Z,21.02
2022-08-05T22:44:08.143Z,21.08
2022-08-05T22:46:40.177Z,21.10
2022-08-05T22:50:18.157Z,21.00
2022-08-05T22:52:05.909Z,21.03
2022-08-05T22:54:36.575Z,20.91
2022-08-05T22:57:05.557Z,20.88
2022-08-05T22:59:48.365Z,20.80
2022-08-05T23:02:28.832Z,20.79
2022-08-05T23:05:01.785Z,20.70
2022-08-05T23:07:45.203Z,20.80
2022-08-05T23:10:19.533Z,20.69
2022-08-05T23:12:54.718Z,20.62
2022-08-05T23:15:29.791Z,20.59
2022-08-05T23:18:06.135Z,20.62
2022-08-05T23:20:43.341Z,20.61
2022-08-05T23:23:11.169Z,20.43
2022-08-05T23:25:52.004Z,20.37
2022-08-05T23:28:28.551Z,20.31
2022-08-05T23:31:16.338Z,20.38
2022-08-05T23:34:04.952Z,20.48
2022-08-05T23:36:38.460Z,20.40
2022-08-05T23:39:09.585Z,20.41
2022-08-05T23:41:37.308Z,20.36
2022-08-05T23:44:08.747Z,20.31
2022-08-05T23:46:37.536Z,20.38
2022-08-05T23:49:15.943Z,20.26
2022-08-05T23:52:03.337Z,20.24
2022-08-05T23:54:38.104Z,19.90
2022-08-05T23:57:07.040Z,19.92
